createdAt,value
2022-09-22T00:00:36.176Z,68.73
2022-09-22T00:01:36.405Z,69.21
2022-09-22T00:02:35.995Z,68.44
2022-09-22T00:03:36.301Z,68.73
2022-09-22T00:04:36.029Z,68.73
2022-09-22T00:05:36.052Z,68.63
2022-09-22T00:06:36.066Z,69.02
2022-09-22T00:07:36.354Z,68.73
2022-09-22T00:08:36.363Z,68.73
2022-09-22T00:09:36.391Z,69.21
2022-09-22T00:10:36.134Z,69.31
2022-09-22T00:11:36.522Z,68.73
2022-09-22T00:12:36.171Z,68.73
2022-09-22T00:13:36.450Z,68.92
2022-09-22T00:14:36.466Z,68.63
2022-09-22T00:15:36.525Z,69.31
2022-09-22T00:16:36.727Z,68.92
2022-09-22T00:17:36.517Z,68.54
2022-09-22T00:18:36.277Z,68.82
2022-09-22T00:19:36.559Z,69.59
2022-09-22T00:20:36.572Z,68.54
2022-09-22T00:21:36.538Z,68.73
2022-09-22T00:22:36.613Z,68.63
2022-09-22T00:23:36.618Z,68.73
2022-09-22T00:24:36.381Z,68.82
2022-09-22T00:25:36.399Z,68.63
2022-09-22T00:26:36.421Z,68.82
2022-09-22T00:27:36.462Z,68.63
2022-09-22T00:28:36.713Z,69.59
2022-09-22T00:29:36.465Z,68.92
2022-09-22T00:30:36.752Z,68.82
2022-09-22T00:31:36.951Z,68.92
2022-09-22T00:32:36.776Z,68.82
2022-09-22T00:33:36.793Z,68.73
2022-09-22T00:34:36.558Z,68.92
2022-09-22T00:35:36.840Z,68.82
2022-09-22T00:36:36.855Z,68.82
2022-09-22T00:37:36.864Z,68.82
2022-09-22T00:38:36.629Z,68.92
2022-09-22T00:39:36.899Z,68.73
2022-09-22T00:40:37.045Z,69.31
2022-09-22T00:41:36.941Z,68.73
2022-09-22T00:42:36.951Z,68.92
2022-09-22T00:43:36.738Z,68.73
2022-09-22T00:44:36.998Z,68.92
2022-09-22T00:45:37.008Z,68.63
2022-09-22T00:46:37.133Z,68.82
2022-09-22T00:47:37.062Z,68.63
2022-09-22T00:48:37.061Z,68.82
2022-09-22T00:49:36.824Z,68.63
2022-09-22T00:50:37.093Z,68.73
2022-09-22T00:51:36.858Z,68.63
2022-09-22T00:52:36.879Z,68.82
2022-09-22T00:53:37.143Z,68.92
2022-09-22T00:54:36.901Z,68.73
2022-09-22T00:55:37.174Z,68.73
2022-09-22T00:56:37.204Z,68.82
2022-09-22T00:57:36.958Z,68.73
2022-09-22T00:58:37.235Z,69.49
2022-09-22T00:59:37.030Z,68.82
2022-09-22T01:00:37.082Z,68.82
2022-09-22T01:01:37.174Z,69.02
2022-09-22T01:02:37.045Z,68.44
2022-09-22T01:03:37.344Z,68.73
2022-09-22T01:04:37.340Z,68.82
2022-09-22T01:05:37.353Z,68.73
2022-09-22T01:06:37.120Z,69.02
2022-09-22T01:07:37.131Z,69.02
2022-09-22T01:08:37.407Z,68.63
2022-09-22T01:09:37.433Z,68.82
2022-09-22T01:10:37.442Z,68.35
2022-09-22T01:11:37.456Z,68.73
2022-09-22T01:12:37.222Z,68.73
2022-09-22T01:13:37.238Z,68.82
2022-09-22T01:14:37.507Z,68.92
2022-09-22T01:15:37.688Z,68.82
2022-09-22T01:16:37.298Z,69.49
2022-09-22T01:17:37.310Z,68.54
2022-09-22T01:18:37.583Z,68.63
2022-09-22T01:19:37.620Z,68.92
2022-09-22T01:20:37.617Z,68.82
2022-09-22T01:21:37.887Z,69.4
2022-09-22T01:22:37.435Z,68.73
2022-09-22T01:23:37.670Z,68.92
2022-09-22T01:24:37.687Z,68.73
2022-09-22T01:25:37.700Z,69.4
2022-09-22T01:26:37.717Z,68.73
2022-09-22T01:27:37.752Z,68.88
2022-09-22T01:28:37.755Z,68.73
2022-09-22T01:29:37.516Z,68.63
2022-09-22T01:30:37.533Z,68.92
2022-09-22T01:31:37.949Z,68.79
2022-09-22T01:32:37.566Z,68.88
2022-09-22T01:33:37.843Z,68.92
2022-09-22T01:34:37.601Z,68.7
2022-09-22T01:35:37.906Z,68.88
2022-09-22T01:36:37.900Z,68.7
2022-09-22T01:37:37.656Z,68.79
2022-09-22T01:38:37.934Z,69.37
2022-09-22T01:39:37.955Z,68.7
2022-09-22T01:40:38.159Z,68.92
2022-09-22T01:41:37.998Z,68.7
2022-09-22T01:42:37.741Z,69.27
2022-09-22T01:43:37.760Z,68.79
2022-09-22T01:44:38.035Z,69.31
2022-09-22T01:45:37.795Z,69.21
2022-09-22T01:46:38.201Z,69.17
2022-09-22T01:47:37.853Z,69.02
2022-09-22T01:48:37.842Z,69.37
2022-09-22T01:49:38.125Z,68.88
2022-09-22T01:50:38.134Z,68.79
2022-09-22T01:51:38.181Z,68.79
2022-09-22T01:52:38.185Z,68.88
2022-09-22T01:53:38.191Z,68.79
2022-09-22T01:54:38.206Z,68.79
2022-09-22T01:55:38.232Z,68.88
2022-09-22T01:56:37.982Z,68.88
2022-09-22T01:57:38.272Z,68.88
2022-09-22T01:58:38.278Z,68.6
2022-09-22T01:59:38.299Z,68.6
2022-09-22T02:00:38.311Z,68.79
2022-09-22T02:01:38.328Z,68.88
2022-09-22T02:02:38.637Z,68.7
2022-09-22T02:03:38.391Z,68.7
2022-09-22T02:04:38.382Z,68.98
2022-09-22T02:05:38.142Z,68.6
2022-09-22T02:06:38.160Z,69.37
2022-09-22T02:07:38.464Z,68.79
2022-09-22T02:08:38.456Z,69.27
2022-09-22T02:09:38.463Z,68.79
2022-09-22T02:10:38.231Z,68.7
2022-09-22T02:11:38.499Z,68.7
2022-09-22T02:12:38.262Z,69.27
2022-09-22T02:13:38.536Z,68.7
2022-09-22T02:14:38.557Z,68.79
2022-09-22T02:15:38.494Z,69.56
2022-09-22T02:16:38.591Z,68.7
2022-09-22T02:17:38.352Z,69.46
2022-09-22T02:18:38.363Z,68.79
2022-09-22T02:19:38.414Z,68.7
2022-09-22T02:20:38.659Z,68.79
2022-09-22T02:21:39.074Z,68.7
2022-09-22T02:22:38.692Z,68.7
2022-09-22T02:23:38.736Z,69.46
2022-09-22T02:24:38.466Z,68.7
2022-09-22T02:25:38.490Z,68.7
2022-09-22T02:26:38.508Z,69.17
2022-09-22T02:27:38.548Z,69.37
2022-09-22T02:28:38.798Z,68.88
2022-09-22T02:29:38.552Z,68.79
2022-09-22T02:30:38.899Z,68.88
2022-09-22T02:31:38.750Z,69.27
2022-09-22T02:32:38.608Z,69.17
2022-09-22T02:33:40.832Z,69.27
2022-09-22T02:34:38.646Z,68.7
2022-09-22T02:35:38.936Z,68.79
2022-09-22T02:36:38.955Z,69.27
2022-09-22T02:37:38.691Z,68.88
2022-09-22T02:38:38.976Z,69.27
2022-09-22T02:39:39.031Z,68.7
2022-09-22T02:40:39.125Z,68.79
2022-09-22T02:41:39.018Z,69.37
2022-09-22T02:42:39.036Z,68.88
2022-09-22T02:43:39.053Z,68.79
2022-09-22T02:44:38.806Z,69.27
2022-09-22T02:45:39.081Z,69.27
2022-09-22T02:46:39.182Z,69.17
2022-09-22T02:47:39.122Z,69.37
2022-09-22T02:48:39.140Z,69.37
2022-09-22T02:49:39.153Z,69.46
2022-09-22T02:50:39.179Z,69.17
2022-09-22T02:51:39.214Z,69.37
2022-09-22T02:52:38.958Z,69.17
2022-09-22T02:53:39.221Z,69.37
2022-09-22T02:54:39.250Z,69.17
2022-09-22T02:55:39.284Z,68.7
2022-09-22T02:56:39.284Z,68.7
2022-09-22T02:57:39.295Z,68.7
2022-09-22T02:58:39.056Z,68.79
2022-09-22T02:59:39.332Z,69.27
2022-09-22T03:00:39.341Z,69.37
2022-09-22T03:01:39.337Z,68.98
2022-09-22T03:02:39.379Z,69.33
2022-09-22T03:03:39.400Z,69.37
2022-09-22T03:04:39.489Z,69.27
2022-09-22T03:05:39.187Z,69.17
2022-09-22T03:06:39.448Z,69.27
2022-09-22T03:07:39.486Z,69.27
2022-09-22T03:08:39.222Z,68.88
2022-09-22T03:09:39.244Z,68.88
2022-09-22T03:10:39.523Z,69.37
2022-09-22T03:11:39.560Z,69.33
2022-09-22T03:12:47.927Z,69.33
2022-09-22T03:13:39.574Z,69.27
2022-09-22T03:14:39.585Z,68.76
2022-09-22T03:15:39.710Z,68.76
2022-09-22T03:16:39.621Z,68.98
2022-09-22T03:17:39.384Z,69.23
2022-09-22T03:18:39.650Z,69.43
2022-09-22T03:19:39.677Z,69.43
2022-09-22T03:20:39.686Z,69.33
2022-09-22T03:21:39.501Z,69.43
2022-09-22T03:22:39.717Z,69.14
2022-09-22T03:23:39.766Z,69.33
2022-09-22T03:24:39.500Z,69.14
2022-09-22T03:25:39.770Z,69.23
2022-09-22T03:26:39.856Z,69.23
2022-09-22T03:27:39.838Z,69.14
2022-09-22T03:28:39.837Z,68.95
2022-09-22T03:29:39.842Z,69.33
2022-09-22T03:30:39.694Z,69.33
2022-09-22T03:31:39.626Z,69.17
2022-09-22T03:32:40.103Z,68.76
2022-09-22T03:33:39.914Z,68.76
2022-09-22T03:34:39.925Z,68.85
2022-09-22T03:35:39.683Z,69.33
2022-09-22T03:36:39.959Z,68.85
2022-09-22T03:37:39.727Z,69.23
2022-09-22T03:38:39.985Z,68.85
2022-09-22T03:39:39.782Z,69.33
2022-09-22T03:40:39.979Z,69.33
2022-09-22T03:41:40.051Z,68.85
2022-09-22T03:42:39.801Z,69.33
2022-09-22T03:43:40.114Z,69.33
2022-09-22T03:44:39.841Z,68.76
2022-09-22T03:45:40.034Z,68.85
2022-09-22T03:46:39.874Z,69.14
2022-09-22T03:47:40.148Z,69.33
2022-09-22T03:48:45.531Z,69.33
2022-09-22T03:49:40.181Z,69.23
2022-09-22T03:50:40.208Z,69.14
2022-09-22T03:51:39.961Z,69.14
2022-09-22T03:52:40.234Z,69.43
2022-09-22T03:53:40.253Z,69.33
2022-09-22T03:54:40.269Z,69.23
2022-09-22T03:55:40.305Z,69.23
2022-09-22T03:56:40.327Z,69.23
2022-09-22T03:57:40.315Z,69.33
2022-09-22T03:58:40.084Z,69.23
2022-09-22T03:59:40.374Z,69.33
2022-09-22T04:00:40.129Z,69.23
2022-09-22T04:01:40.518Z,69.14
2022-09-22T04:02:40.528Z,69.43
2022-09-22T04:03:40.167Z,69.14
2022-09-22T04:04:40.440Z,69.14
2022-09-22T04:05:40.457Z,69.14
2022-09-22T04:06:40.475Z,69.14
2022-09-22T04:07:40.485Z,69.43
2022-09-22T04:08:40.507Z,69.43
2022-09-22T04:09:40.270Z,69.43
2022-09-22T04:10:40.553Z,68.85
2022-09-22T04:11:40.580Z,69.23
2022-09-22T04:12:40.575Z,69.23
2022-09-22T04:13:46.485Z,69.14
2022-09-22T04:14:40.609Z,69.23
2022-09-22T04:15:40.636Z,69.14
2022-09-22T04:16:40.788Z,68.85
2022-09-22T04:17:40.657Z,69.43
2022-09-22T04:18:40.425Z,69.14
2022-09-22T04:19:40.441Z,69.14
2022-09-22T04:20:40.913Z,69.14
2022-09-22T04:21:40.880Z,69.23
2022-09-22T04:22:40.486Z,69.23
2022-09-22T04:23:40.762Z,69.71
2022-09-22T04:24:40.783Z,69.33
2022-09-22T04:25:40.800Z,69.14
2022-09-22T04:26:51.727Z,69.33
2022-09-22T04:27:40.599Z,69.33
2022-09-22T04:28:40.853Z,69.33
2022-09-22T04:29:40.862Z,69.33
2022-09-22T04:30:40.723Z,69.33
2022-09-22T04:31:40.922Z,69.33
2022-09-22T04:32:40.919Z,69.14
2022-09-22T04:33:40.676Z,69.62
2022-09-22T04:34:40.700Z,69.33
2022-09-22T04:35:40.966Z,69.14
2022-09-22T04:36:40.986Z,69.14
2022-09-22T04:37:41.001Z,69.14
2022-09-22T04:38:41.014Z,69.14
2022-09-22T04:39:41.038Z,69.14
2022-09-22T04:40:40.977Z,69.14
2022-09-22T04:41:40.816Z,69.33
2022-09-22T04:42:41.087Z,69.33
2022-09-22T04:43:41.132Z,69.23
2022-09-22T04:44:41.116Z,69.33
2022-09-22T04:45:42.341Z,69.14
2022-09-22T04:46:41.150Z,69.23
2022-09-22T04:47:41.200Z,69.14
2022-09-22T04:48:40.931Z,69.23
2022-09-22T04:49:40.953Z,69.33
2022-09-22T04:50:44.529Z,69.23
2022-09-22T04:51:41.247Z,69.33
2022-09-22T04:52:41.004Z,69.14
2022-09-22T04:53:41.281Z,69.43
2022-09-22T04:54:41.295Z,69.23
2022-09-22T04:55:41.312Z,69.43
2022-09-22T04:56:41.325Z,69.14
2022-09-22T04:57:41.349Z,69.33
2022-09-22T04:58:41.101Z,69.14
2022-09-22T04:59:41.406Z,69.23
2022-09-22T05:00:41.396Z,69.23
2022-09-22T05:01:41.621Z,69.14
2022-09-22T05:02:41.218Z,69.14
2022-09-22T05:03:41.589Z,69.14
2022-09-22T05:04:41.466Z,69.23
2022-09-22T05:05:41.227Z,69.33
2022-09-22T05:06:41.504Z,69.14
2022-09-22T05:07:41.257Z,69.43
2022-09-22T05:08:41.530Z,69.23
2022-09-22T05:09:41.559Z,69.14
2022-09-22T05:10:41.298Z,69.14
2022-09-22T05:11:41.592Z,69.14
2022-09-22T05:12:41.599Z,69.33
2022-09-22T05:13:41.363Z,69.23
2022-09-22T05:14:41.629Z,69.23
2022-09-22T05:15:41.675Z,69.04
2022-09-22T05:16:41.843Z,69.04
2022-09-22T05:17:41.689Z,69.14
2022-09-22T05:18:41.701Z,69.14
2022-09-22T05:19:41.745Z,69.04
2022-09-22T05:20:41.731Z,69.14
2022-09-22T05:21:41.759Z,69.14
2022-09-22T05:22:42.340Z,69.23
2022-09-22T05:23:41.797Z,69.14
2022-09-22T05:24:41.815Z,69.33
2022-09-22T05:25:41.567Z,69.14
2022-09-22T05:26:41.832Z,69.14
2022-09-22T05:27:41.607Z,69.14
2022-09-22T05:28:41.874Z,69.04
2022-09-22T05:29:41.639Z,69.14
2022-09-22T05:30:42.051Z,69.04
2022-09-22T05:31:42.059Z,69.14
2022-09-22T05:32:41.945Z,69.23
2022-09-22T05:33:41.699Z,69.23
2022-09-22T05:34:41.972Z,69.14
2022-09-22T05:35:42.009Z,69.14
2022-09-22T05:36:41.752Z,69.23
2022-09-22T05:37:42.022Z,69.14
2022-09-22T05:38:41.787Z,69.14
2022-09-22T05:39:42.065Z,69.14
2022-09-22T05:40:41.953Z,69.14
2022-09-22T05:41:42.091Z,69.33
2022-09-22T05:42:42.116Z,69.33
2022-09-22T05:43:42.126Z,69.43
2022-09-22T05:44:42.147Z,69.23
2022-09-22T05:45:42.034Z,69.33
2022-09-22T05:46:42.219Z,69.33
2022-09-22T05:47:42.220Z,68.66
2022-09-22T05:48:42.215Z,68.76
2022-09-22T05:49:42.224Z,68.85
2022-09-22T05:50:42.242Z,69.04
2022-09-22T05:51:42.297Z,69.23
2022-09-22T05:52:42.298Z,69.14
2022-09-22T05:53:42.306Z,68.47
2022-09-22T05:54:42.066Z,68.38
2022-09-22T05:55:42.333Z,68.38
2022-09-22T05:56:42.347Z,68.95
2022-09-22T05:57:42.363Z,68.28
2022-09-22T05:58:42.378Z,68.28
2022-09-22T05:59:42.138Z,68.28
2022-09-22T06:00:42.646Z,69.14
2022-09-22T06:01:42.429Z,69.04
2022-09-22T06:02:42.359Z,68.57
2022-09-22T06:03:42.490Z,69.04
2022-09-22T06:04:42.225Z,68.57
2022-09-22T06:05:42.506Z,68.76
2022-09-22T06:06:42.252Z,68.95
2022-09-22T06:07:42.614Z,69.14
2022-09-22T06:08:49.029Z,68.57
2022-09-22T06:09:42.566Z,68.47
2022-09-22T06:10:42.588Z,68.85
2022-09-22T06:11:42.348Z,68.85
2022-09-22T06:12:42.616Z,68.95
2022-09-22T06:13:42.634Z,68.38
2022-09-22T06:14:42.653Z,68.57
2022-09-22T06:15:42.673Z,68.85
2022-09-22T06:16:42.819Z,68.66
2022-09-22T06:17:42.702Z,69.14
2022-09-22T06:18:42.720Z,69.14
2022-09-22T06:19:42.769Z,68.95
2022-09-22T06:20:42.494Z,68.51
2022-09-22T06:21:42.779Z,68.66
2022-09-22T06:22:42.791Z,68.51
2022-09-22T06:23:45.404Z,68.57
2022-09-22T06:24:42.826Z,68.47
2022-09-22T06:25:42.590Z,68.66
2022-09-22T06:26:42.858Z,68.66
2022-09-22T06:27:42.997Z,68.6
2022-09-22T06:28:42.895Z,68.28
2022-09-22T06:29:42.917Z,68.12
2022-09-22T06:30:42.689Z,68.03
2022-09-22T06:31:43.024Z,68.32
2022-09-22T06:32:42.964Z,68.03
2022-09-22T06:33:42.726Z,68.22
2022-09-22T06:34:42.736Z,68.32
2022-09-22T06:35:43.205Z,68.51
2022-09-22T06:36:43.029Z,68.12
2022-09-22T06:37:43.052Z,68.32
2022-09-22T06:38:43.119Z,68.32
2022-09-22T06:39:43.112Z,68.22
2022-09-22T06:40:43.045Z,68.6
2022-09-22T06:41:43.119Z,68.32
2022-09-22T06:42:43.135Z,68.22
2022-09-22T06:43:42.905Z,68.03
2022-09-22T06:44:43.168Z,68.41
2022-09-22T06:45:43.052Z,68.41
2022-09-22T06:46:43.205Z,67.93
2022-09-22T06:47:43.227Z,68.51
2022-09-22T06:48:42.983Z,68.51
2022-09-22T06:49:43.259Z,68.32
2022-09-22T06:50:43.737Z,68.12
2022-09-22T06:51:43.317Z,68.6
2022-09-22T06:52:43.306Z,68.22
2022-09-22T06:53:43.327Z,68.03
2022-09-22T06:54:43.342Z,68.41
2022-09-22T06:55:43.399Z,68.41
2022-09-22T06:56:43.369Z,68.41
2022-09-22T06:57:43.140Z,67.83
2022-09-22T06:59:11.214Z,68.32
2022-09-22T06:59:43.427Z,68.6
2022-09-22T07:00:43.864Z,68.41
2022-09-22T07:01:43.699Z,68.12
2022-09-22T07:02:43.486Z,68.32
2022-09-22T07:03:43.503Z,68.51
2022-09-22T07:04:43.509Z,68.22
2022-09-22T07:05:43.550Z,68.41
2022-09-22T07:06:43.565Z,68.22
2022-09-22T07:07:43.337Z,67.93
2022-09-22T07:08:43.336Z,67.93
2022-09-22T07:09:43.604Z,68.51
2022-09-22T07:10:43.364Z,67.97
2022-09-22T07:11:43.664Z,67.77
2022-09-22T07:12:43.656Z,67.77
2022-09-22T07:13:43.669Z,67.97
2022-09-22T07:14:43.690Z,67.68
2022-09-22T07:15:43.706Z,67.77
2022-09-22T07:16:43.898Z,67.87
2022-09-22T07:17:43.485Z,68.06
2022-09-22T07:18:43.762Z,68.16
2022-09-22T07:19:43.773Z,67.49
2022-09-22T07:20:43.791Z,67.87
2022-09-22T07:21:43.807Z,67.68
2022-09-22T07:22:43.838Z,67.58
2022-09-22T07:23:43.868Z,67.87
2022-09-22T07:24:43.869Z,67.97
2022-09-22T07:25:43.883Z,67.97
2022-09-22T07:26:43.904Z,67.87
2022-09-22T07:27:43.941Z,67.77
2022-09-22T07:28:43.679Z,67.77
2022-09-22T07:29:43.948Z,67.3
2022-09-22T07:30:43.975Z,67.4
2022-09-22T07:31:44.467Z,67.49
2022-09-22T07:32:44.011Z,67.49
2022-09-22T07:33:44.017Z,66.85
2022-09-22T07:34:44.054Z,66.85
2022-09-22T07:35:44.069Z,66.95
2022-09-22T07:36:44.076Z,66.95
2022-09-22T07:37:44.098Z,67.05
2022-09-22T07:38:44.117Z,66.95
2022-09-22T07:39:44.147Z,66.95
2022-09-22T07:40:43.990Z,67.62
2022-09-22T07:41:44.329Z,66.95
2022-09-22T07:42:43.928Z,67.52
2022-09-22T07:43:44.217Z,67.33
2022-09-22T07:44:46.815Z,66.95
2022-09-22T07:45:44.232Z,66.85
2022-09-22T07:46:44.102Z,66.95
2022-09-22T07:47:44.014Z,67.52
2022-09-22T07:48:44.298Z,67.43
2022-09-22T07:49:44.318Z,67.14
2022-09-22T07:50:44.325Z,66.85
2022-09-22T07:51:44.338Z,66.85
2022-09-22T07:52:44.363Z,67.14
2022-09-22T07:53:44.372Z,66.85
2022-09-22T07:54:44.133Z,66.85
2022-09-22T07:55:44.434Z,66.76
2022-09-22T07:56:44.175Z,66.85
2022-09-22T07:57:44.191Z,67.43
2022-09-22T07:58:44.470Z,66.95
2022-09-22T07:59:44.506Z,67.05
2022-09-22T08:00:44.322Z,67.05
2022-09-22T08:01:44.673Z,66.85
2022-09-22T08:02:44.535Z,66.95
2022-09-22T08:03:44.560Z,66.95
2022-09-22T08:04:44.321Z,66.95
2022-09-22T08:05:44.590Z,66.95
2022-09-22T08:06:44.606Z,67.24
2022-09-22T08:07:44.376Z,67.33
2022-09-22T08:08:44.393Z,67.24
2022-09-22T08:09:44.407Z,66.99
2022-09-22T08:10:44.676Z,67.24
2022-09-22T08:11:44.471Z,66.85
2022-09-22T08:12:44.714Z,66.85
2022-09-22T08:13:44.741Z,66.85
2022-09-22T08:14:44.497Z,66.85
2022-09-22T08:15:45.041Z,67.52
2022-09-22T08:16:44.798Z,67.52
2022-09-22T08:17:44.547Z,66.79
2022-09-22T08:18:44.820Z,66.99
2022-09-22T08:19:44.590Z,66.76
2022-09-22T08:20:47.146Z,67.33
2022-09-22T08:21:51.190Z,67.65
2022-09-22T08:22:44.637Z,67.36
2022-09-22T08:23:44.656Z,67.36
2022-09-22T08:24:44.932Z,66.89
2022-09-22T08:25:44.695Z,66.89
2022-09-22T08:26:49.916Z,67.18
2022-09-22T08:27:44.989Z,66.89
2022-09-22T08:28:44.745Z,66.99
2022-09-22T08:29:45.024Z,67.08
2022-09-22T08:30:45.040Z,66.85
2022-09-22T08:31:45.495Z,66.89
2022-09-22T08:32:45.079Z,67.36
2022-09-22T08:33:44.865Z,67.55
2022-09-22T08:34:45.115Z,67.36
2022-09-22T08:35:45.132Z,66.89
2022-09-22T08:36:45.490Z,66.79
2022-09-22T08:37:45.167Z,67.84
2022-09-22T08:38:44.924Z,67.65
2022-09-22T08:39:45.224Z,67.75
2022-09-22T08:40:45.062Z,67.55
2022-09-22T08:41:44.986Z,67.27
2022-09-22T08:42:45.275Z,67.46
2022-09-22T08:43:45.274Z,67.55
2022-09-22T08:44:45.291Z,67.18
2022-09-22T08:45:45.303Z,67.36
2022-09-22T08:46:45.508Z,67.08
2022-09-22T08:47:45.370Z,66.89
2022-09-22T08:48:45.357Z,66.89
2022-09-22T08:49:45.389Z,67.65
2022-09-22T08:50:45.400Z,67.18
2022-09-22T08:51:45.158Z,66.89
2022-09-22T08:52:45.429Z,67.36
2022-09-22T08:53:45.464Z,67.46
2022-09-22T08:54:45.215Z,67.36
2022-09-22T08:55:45.228Z,67.46
2022-09-22T08:56:45.512Z,67.46
2022-09-22T08:57:45.270Z,67.46
2022-09-22T08:58:45.309Z,67.36
2022-09-22T08:59:45.560Z,67.75
2022-09-22T09:00:45.582Z,67.46
2022-09-22T09:01:45.765Z,67.55
2022-09-22T09:02:45.491Z,67.55
2022-09-22T09:03:45.663Z,67.46
2022-09-22T09:04:45.656Z,67.55
2022-09-22T09:05:45.414Z,67.65
2022-09-22T09:06:45.693Z,67.46
2022-09-22T09:07:45.717Z,67.55
2022-09-22T09:08:45.729Z,67.27
2022-09-22T09:09:45.780Z,67.18
2022-09-22T09:10:45.761Z,67.55
2022-09-22T09:11:45.772Z,67.75
2022-09-22T09:12:45.803Z,67.75
2022-09-22T09:13:45.812Z,67.84
2022-09-22T09:14:45.862Z,67.75
2022-09-22T09:15:45.974Z,67.75
2022-09-22T09:16:45.607Z,67.75
2022-09-22T09:17:45.893Z,67.84
2022-09-22T09:18:45.645Z,67.84
2022-09-22T09:19:45.945Z,67.84
2022-09-22T09:20:45.935Z,67.65
2022-09-22T09:21:45.955Z,67.65
2022-09-22T09:22:49.970Z,67.65
2022-09-22T09:25:30.887Z,67.55
2022-09-22T09:26:30.422Z,67.65
2022-09-22T09:27:30.705Z,67.69
2022-09-22T09:28:30.811Z,67.78
2022-09-22T09:29:30.738Z,67.65
2022-09-22T09:30:30.953Z,67.84
2022-09-22T09:31:30.630Z,67.88
2022-09-22T09:32:30.791Z,67.78
2022-09-22T09:33:30.815Z,67.75
2022-09-22T09:34:30.826Z,67.65
2022-09-22T09:35:30.874Z,67.69
2022-09-22T09:36:30.867Z,67.88
2022-09-22T09:37:31.082Z,67.88
2022-09-22T09:38:30.897Z,67.65
2022-09-22T09:39:30.918Z,67.78
2022-09-22T09:40:31.109Z,67.65
2022-09-22T09:41:30.958Z,67.55
2022-09-22T09:42:31.031Z,67.69
2022-09-22T09:43:30.737Z,67.69
2022-09-22T09:44:30.751Z,67.88
2022-09-22T09:45:31.034Z,67.78
2022-09-22T09:46:31.149Z,67.88
2022-09-22T09:47:30.817Z,68.07
2022-09-22T09:48:31.086Z,68.07
2022-09-22T09:49:31.096Z,67.88
2022-09-22T09:50:31.121Z,67.78
2022-09-22T09:51:31.189Z,67.78
2022-09-22T09:52:31.163Z,68.07
2022-09-22T09:53:31.169Z,67.59
2022-09-22T09:54:31.198Z,67.69
2022-09-22T09:55:30.953Z,67.59
2022-09-22T09:56:30.979Z,67.78
2022-09-22T09:57:31.239Z,67.59
2022-09-22T09:58:31.266Z,67.78
2022-09-22T09:59:31.028Z,67.59
2022-09-22T10:00:31.301Z,68.16
2022-09-22T10:01:31.402Z,67.97
2022-09-22T10:02:31.105Z,67.88
2022-09-22T10:03:31.213Z,67.88
2022-09-22T10:04:31.376Z,67.88
2022-09-22T10:05:31.506Z,67.88
2022-09-22T10:06:31.150Z,67.88
2022-09-22T10:08:31.453Z,67.88
2022-09-22T10:09:31.210Z,67.78
2022-09-22T10:10:31.483Z,67.78
2022-09-22T10:11:31.293Z,67.88
2022-09-22T10:12:31.528Z,67.69
2022-09-22T10:13:31.279Z,67.88
2022-09-22T10:14:31.298Z,68.16
2022-09-22T10:15:31.663Z,68.16
2022-09-22T10:16:31.343Z,68.07
2022-09-22T10:17:31.604Z,68.16
2022-09-22T10:18:31.658Z,67.97
2022-09-22T10:19:31.649Z,67.97
2022-09-22T10:20:31.700Z,67.97
2022-09-22T10:21:31.691Z,67.97
2022-09-22T10:22:31.706Z,68.07
2022-09-22T10:23:31.745Z,67.88
2022-09-22T10:24:31.554Z,67.88
2022-09-22T10:25:31.756Z,67.78
2022-09-22T10:26:31.776Z,67.88
2022-09-22T10:27:31.789Z,67.88
2022-09-22T10:28:31.824Z,67.88
2022-09-22T10:29:31.830Z,67.69
2022-09-22T10:30:31.851Z,67.69
2022-09-22T10:31:31.678Z,67.78
2022-09-22T10:32:31.627Z,67.59
2022-09-22T10:33:31.904Z,67.69
2022-09-22T10:34:32.014Z,67.91
2022-09-22T10:35:31.689Z,67.72
2022-09-22T10:36:31.709Z,67.78
2022-09-22T10:37:32.189Z,67.91
2022-09-22T10:38:32.078Z,67.69
2022-09-22T10:39:32.084Z,67.82
2022-09-22T10:40:32.159Z,67.88
2022-09-22T10:41:32.057Z,67.91
2022-09-22T10:42:32.071Z,67.91
2022-09-22T10:43:31.830Z,67.82
2022-09-22T10:44:51.263Z,67.72
2022-09-22T10:45:32.157Z,67.53
2022-09-22T10:46:32.290Z,67.24
2022-09-22T10:47:31.912Z,67.34
2022-09-22T10:48:31.939Z,68.01
2022-09-22T10:49:32.201Z,67.72
2022-09-22T10:50:32.266Z,67.63
2022-09-22T10:51:32.240Z,67.53
2022-09-22T10:52:32.259Z,67.72
2022-09-22T10:53:32.277Z,67.43
2022-09-22T10:54:32.291Z,67.63
2022-09-22T10:55:32.350Z,67.43
2022-09-22T10:56:32.323Z,67.34
2022-09-22T10:57:32.098Z,67.43
2022-09-22T10:58:32.366Z,67.34
2022-09-22T10:59:32.393Z,67.53
2022-09-22T11:00:34.060Z,67.24
2022-09-22T11:01:32.299Z,66.96
2022-09-22T11:02:32.442Z,67.53
2022-09-22T11:03:32.459Z,66.96
2022-09-22T11:04:32.666Z,67.24
2022-09-22T11:05:32.501Z,67.05
2022-09-22T11:06:32.540Z,67.24
2022-09-22T11:07:32.535Z,66.96
2022-09-22T11:08:32.298Z,66.86
2022-09-22T11:09:32.732Z,67.05
2022-09-22T11:10:32.598Z,67.43
2022-09-22T11:11:33.589Z,67.14
2022-09-22T11:12:32.621Z,67.43
2022-09-22T11:13:32.669Z,67.27
2022-09-22T11:14:32.408Z,67.43
2022-09-22T11:15:32.840Z,67.05
2022-09-22T11:16:32.700Z,67.27
2022-09-22T11:17:32.722Z,67.18
2022-09-22T11:18:34.431Z,66.89
2022-09-22T11:19:32.763Z,66.89
2022-09-22T11:20:32.778Z,66.99
2022-09-22T11:21:32.539Z,66.76
2022-09-22T11:22:32.839Z,67.08
2022-09-22T11:23:32.888Z,66.89
2022-09-22T11:24:32.858Z,67.37
2022-09-22T11:25:32.879Z,66.51
2022-09-22T11:26:32.891Z,66.61
2022-09-22T11:27:32.949Z,66.41
2022-09-22T11:28:32.672Z,66.7
2022-09-22T11:29:32.691Z,66.7
2022-09-22T11:30:33.027Z,66.7
2022-09-22T11:31:32.986Z,66.89
2022-09-22T11:32:32.749Z,66.41
2022-09-22T11:33:33.030Z,66.41
2022-09-22T11:34:33.049Z,66.41
2022-09-22T11:35:33.071Z,66.41
2022-09-22T11:36:33.077Z,66.61
2022-09-22T11:37:33.446Z,66.61
2022-09-22T11:38:33.146Z,66.41
2022-09-22T11:39:33.129Z,66.35
2022-09-22T11:40:33.282Z,66.35
2022-09-22T11:41:32.912Z,66.54
2022-09-22T11:42:33.189Z,66.25
2022-09-22T11:43:33.237Z,65.94
2022-09-22T11:44:33.237Z,65.68
2022-09-22T11:45:33.246Z,65.74
2022-09-22T11:46:33.109Z,65.88
2022-09-22T11:47:33.285Z,66.16
2022-09-22T11:48:33.310Z,66.16
2022-09-22T11:49:33.330Z,66.25
2022-09-22T11:50:33.345Z,65.88
2022-09-22T11:51:33.107Z,65.88
2022-09-22T11:52:33.127Z,66.16
2022-09-22T11:53:33.395Z,65.97
2022-09-22T11:54:33.446Z,66.16
2022-09-22T11:55:33.178Z,66.25
2022-09-22T11:56:33.459Z,65.68
2022-09-22T11:57:33.475Z,65.49
2022-09-22T11:58:33.499Z,65.58
2022-09-22T11:59:33.534Z,65.2
2022-09-22T12:00:33.541Z,65.49
2022-09-22T12:01:33.556Z,65.39
2022-09-22T12:02:33.617Z,65.05
2022-09-22T12:03:33.581Z,65.33
2022-09-22T12:04:33.615Z,64.47
2022-09-22T12:05:33.626Z,65.14
2022-09-22T12:06:33.653Z,65.52
2022-09-22T12:07:33.666Z,65.05
2022-09-22T12:08:33.693Z,65.05
2022-09-22T12:09:38.065Z,64.47
2022-09-22T12:10:33.742Z,64.76
2022-09-22T12:11:33.745Z,64.85
2022-09-22T12:12:33.772Z,64.95
2022-09-22T12:13:33.532Z,64.85
2022-09-22T12:14:33.551Z,64.47
2022-09-22T12:15:33.893Z,64.47
2022-09-22T12:16:33.843Z,64.56
2022-09-22T12:17:33.862Z,64.47
2022-09-22T12:18:33.886Z,64.09
2022-09-22T12:19:33.902Z,64.09
2022-09-22T12:20:33.952Z,64.18
2022-09-22T12:21:33.956Z,63.89
2022-09-22T12:22:33.706Z,64.31
2022-09-22T12:23:33.985Z,64.09
2022-09-22T12:24:34.014Z,64.02
2022-09-22T12:25:50.236Z,63.92
2022-09-22T12:26:33.780Z,63.92
2022-09-22T12:27:34.063Z,63.92
2022-09-22T12:28:34.082Z,63.92
2022-09-22T12:29:33.858Z,63.92
2022-09-22T12:30:34.227Z,63.92
2022-09-22T12:31:34.181Z,63.92
2022-09-22T12:32:34.159Z,63.73
2022-09-22T12:33:34.182Z,63.92
2022-09-22T12:34:34.195Z,64.02
2022-09-22T12:35:34.242Z,63.92
2022-09-22T12:36:34.233Z,64.02
2022-09-22T12:37:34.412Z,63.83
2022-09-22T12:38:34.286Z,63.92
2022-09-22T12:39:34.306Z,63.92
2022-09-22T12:40:34.233Z,63.92
2022-09-22T12:41:34.366Z,63.92
2022-09-22T12:42:34.359Z,63.83
2022-09-22T12:43:34.121Z,63.83
2022-09-22T12:44:34.395Z,63.83
2022-09-22T12:45:34.158Z,64.12
2022-09-22T12:46:34.434Z,64.12
2022-09-22T12:47:34.498Z,64.02
2022-09-22T12:48:34.480Z,63.73
2022-09-22T12:49:34.497Z,63.92
2022-09-22T12:50:34.511Z,63.83
2022-09-22T12:51:34.277Z,63.73
2022-09-22T12:52:34.557Z,63.92
2022-09-22T12:53:34.652Z,64.02
2022-09-22T12:54:34.593Z,63.83
2022-09-22T12:55:34.357Z,63.45
2022-09-22T12:56:34.634Z,63.35